sensor_id;sensor_type;location;lat;lon;timestamp;P1;durP1;ratioP1;P2;durP2;ratioP2
71288;SDS011;59068;52.502;9.860;2023-09-12T00:00:07;12.40;;;11.20;;
71288;SDS011;59068;52.502;9.860;2023-09-12T00:02:35;12.13;;;10.87;;
71288;SDS011;59068;52.502;9.860;2023-09-12T00:05:01;13.03;;;11.43;;
71288;SDS011;59068;52.502;9.860;2023-09-12T00:07:30;12.60;;;11.20;;
71288;SDS011;59068;52.502;9.860;2023-09-12T00:09:57;10.97;;;9.97;;
71288;SDS011;59068;52.502;9.860;2023-09-12T00:12:24;10.23;;;9.43;;
71288;SDS011;59068;52.502;9.860;2023-09-12T00:14:50;11.50;;;10.50;;
71288;SDS011;59068;52.502;9.860;2023-09-12T00:17:17;12.63;;;11.13;;
71288;SDS011;59068;52.502;9.860;2023-09-12T00:19:43;12.40;;;11.10;;
71288;SDS011;59068;52.502;9.860;2023-09-12T00:22:10;13.17;;;11.83;;
71288;SDS011;59068;52.502;9.860;2023-09-12T00:24:38;13.50;;;12.10;;
71288;SDS011;59068;52.502;9.860;2023-09-12T00:27:05;12.63;;;11.37;;
71288;SDS011;59068;52.502;9.860;2023-09-12T00:29:32;13.90;;;12.60;;
71288;SDS011;59068;52.502;9.860;2023-09-12T00:31:58;12.87;;;11.33;;
71288;SDS011;59068;52.502;9.860;2023-09-12T00:34:25;13.57;;;11.67;;
71288;SDS011;59068;52.502;9.860;2023-09-12T00:36:52;12.83;;;11.60;;
71288;SDS011;59068;52.502;9.860;2023-09-12T00:39:18;13.83;;;11.33;;
71288;SDS011;59068;52.502;9.860;2023-09-12T00:41:46;13.00;;;11.87;;
71288;SDS011;59068;52.502;9.860;2023-09-12T00:44:13;12.93;;;11.00;;
71288;SDS011;59068;52.502;9.860;2023-09-12T00:46:39;12.03;;;10.57;;
71288;SDS011;59068;52.502;9.860;2023-09-12T00:49:06;11.50;;;10.27;;
71288;SDS011;59068;52.502;9.860;2023-09-12T00:51:34;11.83;;;10.73;;
71288;SDS011;59068;52.502;9.860;2023-09-12T00:54:01;11.03;;;10.10;;
71288;SDS011;59068;52.502;9.860;2023-09-12T00:56:28;10.93;;;9.93;;
71288;SDS011;59068;52.502;9.860;2023-09-12T00:58:56;10.83;;;9.83;;
71288;SDS011;59068;52.502;9.860;2023-09-12T01:01:23;11.27;;;10.17;;
71288;SDS011;59068;52.502;9.860;2023-09-12T01:03:50;9.90;;;9.03;;
71288;SDS011;59068;52.502;9.860;2023-09-12T02:03:01;12.03;;;10.93;;
71288;SDS011;59068;52.502;9.860;2023-09-12T02:05:27;13.70;;;12.13;;
71288;SDS011;59068;52.502;9.860;2023-09-12T02:07:54;13.03;;;11.70;;
71288;SDS011;59068;52.502;9.860;2023-09-12T02:10:20;11.50;;;10.60;;
71288;SDS011;59068;52.502;9.860;2023-09-12T02:12:47;13.00;;;11.90;;
71288;SDS011;59068;52.502;9.860;2023-09-12T02:15:14;11.20;;;10.30;;
71288;SDS011;59068;52.502;9.860;2023-09-12T02:17:40;11.40;;;10.30;;
71288;SDS011;59068;52.502;9.860;2023-09-12T02:20:09;12.57;;;11.40;;
71288;SDS011;59068;52.502;9.860;2023-09-12T02:22:36;11.77;;;10.63;;
71288;SDS011;59068;52.502;9.860;2023-09-12T02:25:03;12.93;;;11.87;;
71288;SDS011;59068;52.502;9.860;2023-09-12T02:27:33;12.80;;;11.50;;
71288;SDS011;59068;52.502;9.860;2023-09-12T02:30:00;12.67;;;11.50;;
71288;SDS011;59068;52.502;9.860;2023-09-12T02:32:28;14.93;;;13.33;;
71288;SDS011;59068;52.502;9.860;2023-09-12T02:34:54;13.03;;;12.00;;
71288;SDS011;59068;52.502;9.860;2023-09-12T02:37:23;14.77;;;13.30;;
71288;SDS011;59068;52.502;9.860;2023-09-12T02:39:50;15.93;;;14.00;;
71288;SDS011;59068;52.502;9.860;2023-09-12T02:42:17;14.77;;;13.40;;
71288;SDS011;59068;52.502;9.860;2023-09-12T02:44:43;15.33;;;13.83;;
71288;SDS011;59068;52.502;9.860;2023-09-12T02:47:10;15.07;;;13.57;;
71288;SDS011;59068;52.502;9.860;2023-09-12T02:49:37;15.33;;;13.70;;
71288;SDS011;59068;52.502;9.860;2023-09-12T02:52:03;16.73;;;15.17;;
71288;SDS011;59068;52.502;9.860;2023-09-12T02:54:33;16.57;;;15.07;;
71288;SDS011;59068;52.502;9.860;2023-09-12T02:56:59;16.07;;;14.53;;
71288;SDS011;59068;52.502;9.860;2023-09-12T02:59:26;16.53;;;15.00;;
71288;SDS011;59068;52.502;9.860;2023-09-12T03:01:52;17.33;;;15.73;;
71288;SDS011;59068;52.502;9.860;2023-09-12T03:04:19;15.00;;;13.60;;
71288;SDS011;59068;52.502;9.860;2023-09-12T03:06:45;15.57;;;14.17;;
71288;SDS011;59068;52.502;9.860;2023-09-12T03:09:13;15.93;;;14.33;;
71288;SDS011;59068;52.502;9.860;2023-09-12T03:11:43;14.83;;;13.33;;
71288;SDS011;59068;52.502;9.860;2023-09-12T03:14:09;14.53;;;13.17;;
71288;SDS011;59068;52.502;9.860;2023-09-12T03:16:36;15.97;;;14.50;;
71288;SDS011;59068;52.502;9.860;2023-09-12T03:19:03;15.60;;;14.00;;
71288;SDS011;59068;52.502;9.860;2023-09-12T03:21:30;15.93;;;14.53;;
71288;SDS011;59068;52.502;9.860;2023-09-12T03:23:57;15.53;;;14.07;;
71288;SDS011;59068;52.502;9.860;2023-09-12T03:26:23;15.40;;;14.00;;
71288;SDS011;59068;52.502;9.860;2023-09-12T03:28:51;14.40;;;12.90;;
71288;SDS011;59068;52.502;9.860;2023-09-12T03:31:18;14.80;;;13.33;;
71288;SDS011;59068;52.502;9.860;2023-09-12T03:33:45;15.83;;;14.37;;
71288;SDS011;59068;52.502;9.860;2023-09-12T03:36:14;15.50;;;14.10;;
71288;SDS011;59068;52.502;9.860;2023-09-12T03:38:41;15.60;;;14.07;;
71288;SDS011;59068;52.502;9.860;2023-09-12T03:41:08;16.50;;;14.87;;
71288;SDS011;59068;52.502;9.860;2023-09-12T03:43:36;17.13;;;15.53;;
71288;SDS011;59068;52.502;9.860;2023-09-12T03:46:04;18.97;;;17.07;;
71288;SDS011;59068;52.502;9.860;2023-09-12T03:48:31;19.90;;;18.00;;
71288;SDS011;59068;52.502;9.860;2023-09-12T03:50:57;20.10;;;18.03;;
71288;SDS011;59068;52.502;9.860;2023-09-12T03:53:24;21.03;;;18.80;;
71288;SDS011;59068;52.502;9.860;2023-09-12T03:55:51;21.53;;;19.40;;
71288;SDS011;59068;52.502;9.860;2023-09-12T03:58:18;21.57;;;19.33;;
71288;SDS011;59068;52.502;9.860;2023-09-12T04:00:44;22.37;;;20.13;;
71288;SDS011;59068;52.502;9.860;2023-09-12T04:03:13;23.93;;;21.43;;
71288;SDS011;59068;52.502;9.860;2023-09-12T04:05:41;24.17;;;21.00;;
71288;SDS011;59068;52.502;9.860;2023-09-12T04:08:07;23.23;;;20.97;;
71288;SDS011;59068;52.502;9.860;2023-09-12T04:10:34;21.53;;;19.57;;
71288;SDS011;59068;52.502;9.860;2023-09-12T04:13:00;22.73;;;20.50;;
71288;SDS011;59068;52.502;9.860;2023-09-12T04:15:27;22.07;;;19.83;;
71288;SDS011;59068;52.502;9.860;2023-09-12T04:17:54;20.43;;;18.23;;
71288;SDS011;59068;52.502;9.860;2023-09-12T04:20:21;16.17;;;14.57;;
71288;SDS011;59068;52.502;9.860;2023-09-12T04:22:48;13.47;;;12.10;;
71288;SDS011;59068;52.502;9.860;2023-09-12T04:25:15;14.10;;;12.67;;
71288;SDS011;59068;52.502;9.860;2023-09-12T04:27:41;13.83;;;12.43;;
71288;SDS011;59068;52.502;9.860;2023-09-12T04:30:08;13.73;;;12.33;;
71288;SDS011;59068;52.502;9.860;2023-09-12T04:32:35;13.20;;;11.87;;
71288;SDS011;59068;52.502;9.860;2023-09-12T04:35:02;14.23;;;12.87;;
71288;SDS011;59068;52.502;9.860;2023-09-12T04:37:31;13.97;;;11.77;;
71288;SDS011;59068;52.502;9.860;2023-09-12T04:39:57;15.57;;;10.47;;
71288;SDS011;59068;52.502;9.860;2023-09-12T04:42:24;12.07;;;10.77;;
71288;SDS011;59068;52.502;9.860;2023-09-12T04:44:50;12.97;;;9.70;;
71288;SDS011;59068;52.502;9.860;2023-09-12T04:47:17;10.23;;;8.10;;
71288;SDS011;59068;52.502;9.860;2023-09-12T04:49:44;9.50;;;8.20;;
71288;SDS011;59068;52.502;9.860;2023-09-12T04:52:11;8.17;;;7.50;;
71288;SDS011;59068;52.502;9.860;2023-09-12T04:54:39;10.93;;;8.13;;
71288;SDS011;59068;52.502;9.860;2023-09-12T04:57:05;10.40;;;7.47;;
71288;SDS011;59068;52.502;9.860;2023-09-12T04:59:32;7.47;;;6.70;;
71288;SDS011;59068;52.502;9.860;2023-09-12T05:01:58;7.70;;;6.90;;
71288;SDS011;59068;52.502;9.860;2023-09-12T05:04:25;8.40;;;6.47;;
71288;SDS011;59068;52.502;9.860;2023-09-12T05:06:52;7.97;;;6.63;;
71288;SDS011;59068;52.502;9.860;2023-09-12T05:09:18;7.77;;;6.90;;
71288;SDS011;59068;52.502;9.860;2023-09-12T05:11:46;7.90;;;7.17;;
71288;SDS011;59068;52.502;9.860;2023-09-12T05:14:13;8.67;;;7.87;;
71288;SDS011;59068;52.502;9.860;2023-09-12T05:16:39;7.77;;;7.00;;
71288;SDS011;59068;52.502;9.860;2023-09-12T05:19:06;7.80;;;7.17;;
71288;SDS011;59068;52.502;9.860;2023-09-12T05:21:32;8.60;;;7.80;;
71288;SDS011;59068;52.502;9.860;2023-09-12T05:23:59;8.93;;;7.87;;
71288;SDS011;59068;52.502;9.860;2023-09-12T05:26:25;9.70;;;8.80;;
71288;SDS011;59068;52.502;9.860;2023-09-12T05:28:53;10.17;;;8.93;;
71288;SDS011;59068;52.502;9.860;2023-09-12T05:31:20;9.17;;;8.17;;
71288;SDS011;59068;52.502;9.860;2023-09-12T05:33:48;9.67;;;8.77;;
71288;SDS011;59068;52.502;9.860;2023-09-12T05:36:15;9.33;;;8.43;;
71288;SDS011;59068;52.502;9.860;2023-09-12T05:38:41;10.33;;;8.83;;
71288;SDS011;59068;52.502;9.860;2023-09-12T05:41:08;9.33;;;8.57;;
71288;SDS011;59068;52.502;9.860;2023-09-12T05:43:35;9.10;;;8.20;;
71288;SDS011;59068;52.502;9.860;2023-09-12T05:46:03;10.67;;;9.17;;
71288;SDS011;59068;52.502;9.860;2023-09-12T05:48:30;9.80;;;8.87;;
71288;SDS011;59068;52.502;9.860;2023-09-12T05:50:56;9.57;;;8.67;;
71288;SDS011;59068;52.502;9.860;2023-09-12T05:53:23;10.97;;;9.50;;
71288;SDS011;59068;52.502;9.860;2023-09-12T05:55:49;10.50;;;9.37;;
71288;SDS011;59068;52.502;9.860;2023-09-12T05:58:16;13.60;;;9.67;;
71288;SDS011;59068;52.502;9.860;2023-09-12T06:00:43;10.17;;;9.10;;
71288;SDS011;59068;52.502;9.860;2023-09-12T06:03:15;9.93;;;8.97;;
71288;SDS011;59068;52.502;9.860;2023-09-12T06:05:42;9.80;;;8.40;;
71288;SDS011;59068;52.502;9.860;2023-09-12T06:08:08;9.30;;;8.33;;
71288;SDS011;59068;52.502;9.860;2023-09-12T06:10:35;9.27;;;8.37;;
71288;SDS011;59068;52.502;9.860;2023-09-12T06:13:01;9.37;;;8.47;;
71288;SDS011;59068;52.502;9.860;2023-09-12T06:15:28;9.70;;;8.77;;
71288;SDS011;59068;52.502;9.860;2023-09-12T06:17:55;9.60;;;8.60;;
71288;SDS011;59068;52.502;9.860;2023-09-12T06:20:23;9.60;;;8.50;;
71288;SDS011;59068;52.502;9.860;2023-09-12T06:22:50;9.23;;;8.40;;
71288;SDS011;59068;52.502;9.860;2023-09-12T06:25:16;8.80;;;8.00;;
71288;SDS011;59068;52.502;9.860;2023-09-12T06:27:43;8.47;;;7.67;;
71288;SDS011;59068;52.502;9.860;2023-09-12T06:30:10;7.77;;;7.07;;
71288;SDS011;59068;52.502;9.860;2023-09-12T06:32:37;9.23;;;7.63;;
71288;SDS011;59068;52.502;9.860;2023-09-12T06:35:04;7.80;;;7.20;;
71288;SDS011;59068;52.502;9.860;2023-09-12T06:37:33;8.77;;;7.93;;
71288;SDS011;59068;52.502;9.860;2023-09-12T06:39:59;10.97;;;9.13;;
71288;SDS011;59068;52.502;9.860;2023-09-12T06:42:26;9.07;;;8.23;;
71288;SDS011;59068;52.502;9.860;2023-09-12T06:44:52;10.00;;;9.00;;
71288;SDS011;59068;52.502;9.860;2023-09-12T06:47:19;10.83;;;9.50;;
71288;SDS011;59068;52.502;9.860;2023-09-12T06:49:46;10.90;;;9.77;;
71288;SDS011;59068;52.502;9.860;2023-09-12T06:52:12;10.97;;;9.87;;
71288;SDS011;59068;52.502;9.860;2023-09-12T06:54:40;10.53;;;9.60;;
71288;SDS011;59068;52.502;9.860;2023-09-12T06:57:07;10.30;;;9.30;;
71288;SDS011;59068;52.502;9.860;2023-09-12T06:59:34;9.80;;;8.80;;
71288;SDS011;59068;52.502;9.860;2023-09-12T07:02:00;9.37;;;8.43;;
71288;SDS011;59068;52.502;9.860;2023-09-12T07:04:27;10.60;;;9.50;;
71288;SDS011;59068;52.502;9.860;2023-09-12T07:06:54;10.07;;;9.03;;
71288;SDS011;59068;52.502;9.860;2023-09-12T07:09:20;9.27;;;8.47;;
71288;SDS011;59068;52.502;9.860;2023-09-12T07:11:48;9.70;;;8.90;;
71288;SDS011;59068;52.502;9.860;2023-09-12T07:14:15;11.03;;;9.63;;
71288;SDS011;59068;52.502;9.860;2023-09-12T07:16:41;10.20;;;9.20;;
71288;SDS011;59068;52.502;9.860;2023-09-12T07:19:08;11.43;;;10.43;;
71288;SDS011;59068;52.502;9.860;2023-09-12T07:21:35;10.73;;;9.63;;
71288;SDS011;59068;52.502;9.860;2023-09-12T07:24:01;9.70;;;8.87;;
71288;SDS011;59068;52.502;9.860;2023-09-12T07:26:29;9.83;;;9.00;;
71288;SDS011;59068;52.502;9.860;2023-09-12T07:28:57;9.83;;;8.93;;
71288;SDS011;59068;52.502;9.860;2023-09-12T07:31:27;9.50;;;8.60;;
71288;SDS011;59068;52.502;9.860;2023-09-12T07:33:54;9.30;;;8.50;;
71288;SDS011;59068;52.502;9.860;2023-09-12T07:36:20;9.60;;;8.70;;
71288;SDS011;59068;52.502;9.860;2023-09-12T07:38:51;10.07;;;9.07;;
71288;SDS011;59068;52.502;9.860;2023-09-12T07:41:18;10.27;;;9.37;;
71288;SDS011;59068;52.502;9.860;2023-09-12T07:43:47;11.90;;;10.70;;
71288;SDS011;59068;52.502;9.860;2023-09-12T07:46:15;11.40;;;10.37;;
71288;SDS011;59068;52.502;9.860;2023-09-12T07:48:44;13.43;;;12.23;;
71288;SDS011;59068;52.502;9.860;2023-09-12T07:51:13;13.17;;;11.77;;
71288;SDS011;59068;52.502;9.860;2023-09-12T07:53:53;12.43;;;11.23;;
71288;SDS011;59068;52.502;9.860;2023-09-12T07:56:33;13.63;;;12.23;;
71288;SDS011;59068;52.502;9.860;2023-09-12T07:59:20;13.07;;;11.83;;
71288;SDS011;59068;52.502;9.860;2023-09-12T08:02:09;11.63;;;10.53;;
71288;SDS011;59068;52.502;9.860;2023-09-12T08:04:56;12.23;;;11.20;;
71288;SDS011;59068;52.502;9.860;2023-09-12T08:07:33;11.30;;;10.30;;
71288;SDS011;59068;52.502;9.860;2023-09-12T08:10:20;11.87;;;10.77;;
71288;SDS011;59068;52.502;9.860;2023-09-12T08:13:07;11.93;;;10.83;;
71288;SDS011;59068;52.502;9.860;2023-09-12T08:15:55;12.53;;;11.33;;
71288;SDS011;59068;52.502;9.860;2023-09-12T08:18:44;11.00;;;10.00;;
71288;SDS011;59068;52.502;9.860;2023-09-12T08:21:31;11.03;;;9.93;;
71288;SDS011;59068;52.502;9.860;2023-09-12T08:24:18;11.53;;;10.30;;
71288;SDS011;59068;52.502;9.860;2023-09-12T08:27:06;10.80;;;9.83;;
71288;SDS011;59068;52.502;9.860;2023-09-12T08:29:53;11.53;;;10.33;;
71288;SDS011;59068;52.502;9.860;2023-09-12T08:32:42;11.33;;;10.13;;
71288;SDS011;59068;52.502;9.860;2023-09-12T08:35:31;10.50;;;9.60;;
71288;SDS011;59068;52.502;9.860;2023-09-12T08:38:19;11.87;;;10.30;;
71288;SDS011;59068;52.502;9.860;2023-09-12T08:41:06;11.43;;;10.40;;
71288;SDS011;59068;52.502;9.860;2023-09-12T08:43:53;10.93;;;9.93;;
71288;SDS011;59068;52.502;9.860;2023-09-12T08:46:42;11.10;;;10.00;;
71288;SDS011;59068;52.502;9.860;2023-09-12T08:49:30;10.27;;;9.37;;
71288;SDS011;59068;52.502;9.860;2023-09-12T08:52:19;11.50;;;10.30;;
71288;SDS011;59068;52.502;9.860;2023-09-12T08:55:07;11.43;;;10.33;;
71288;SDS011;59068;52.502;9.860;2023-09-12T08:57:55;11.47;;;10.47;;
71288;SDS011;59068;52.502;9.860;2023-09-12T09:00:42;12.53;;;11.33;;
71288;SDS011;59068;52.502;9.860;2023-09-12T09:03:31;12.33;;;11.03;;
71288;SDS011;59068;52.502;9.860;2023-09-12T09:06:18;12.90;;;11.53;;
71288;SDS011;59068;52.502;9.860;2023-09-12T09:09:08;12.13;;;11.03;;
71288;SDS011;59068;52.502;9.860;2023-09-12T09:11:56;12.67;;;11.47;;
71288;SDS011;59068;52.502;9.860;2023-09-12T09:14:43;11.33;;;10.40;;
71288;SDS011;59068;52.502;9.860;2023-09-12T09:17:46;10.90;;;9.93;;
71288;SDS011;59068;52.502;9.860;2023-09-12T09:20:34;11.67;;;10.57;;
71288;SDS011;59068;52.502;9.860;2023-09-12T09:23:22;10.70;;;9.63;;
71288;SDS011;59068;52.502;9.860;2023-09-12T09:26:11;11.23;;;10.10;;
71288;SDS011;59068;52.502;9.860;2023-09-12T09:29:09;12.67;;;11.50;;
71288;SDS011;59068;52.502;9.860;2023-09-12T09:31:59;13.33;;;11.93;;
71288;SDS011;59068;52.502;9.860;2023-09-12T09:34:47;12.97;;;11.67;;
71288;SDS011;59068;52.502;9.860;2023-09-12T09:37:35;11.93;;;10.73;;
71288;SDS011;59068;52.502;9.860;2023-09-12T09:40:23;11.03;;;9.97;;
71288;SDS011;59068;52.502;9.860;2023-09-12T09:43:11;11.67;;;9.77;;
71288;SDS011;59068;52.502;9.860;2023-09-12T09:45:58;10.30;;;9.30;;
71288;SDS011;59068;52.502;9.860;2023-09-12T09:48:48;9.53;;;8.67;;
71288;SDS011;59068;52.502;9.860;2023-09-12T09:51:40;9.53;;;8.63;;
71288;SDS011;59068;52.502;9.860;2023-09-12T09:54:29;8.97;;;8.07;;
71288;SDS011;59068;52.502;9.860;2023-09-12T09:57:16;8.37;;;7.67;;
71288;SDS011;59068;52.502;9.860;2023-09-12T10:00:06;7.93;;;7.23;;
71288;SDS011;59068;52.502;9.860;2023-09-12T10:02:54;7.70;;;7.00;;
71288;SDS011;59068;52.502;9.860;2023-09-12T10:05:42;8.43;;;7.10;;
71288;SDS011;59068;52.502;9.860;2023-09-12T10:08:31;7.27;;;6.63;;
71288;SDS011;59068;52.502;9.860;2023-09-12T10:11:20;7.50;;;6.70;;
71288;SDS011;59068;52.502;9.860;2023-09-12T10:14:08;11.43;;;8.03;;
71288;SDS011;59068;52.502;9.860;2023-09-12T10:17:00;7.70;;;7.00;;
71288;SDS011;59068;52.502;9.860;2023-09-12T10:19:49;8.63;;;7.87;;
71288;SDS011;59068;52.502;9.860;2023-09-12T10:22:40;8.67;;;7.60;;
71288;SDS011;59068;52.502;9.860;2023-09-12T10:25:36;8.30;;;7.50;;
71288;SDS011;59068;52.502;9.860;2023-09-12T10:28:23;9.13;;;8.23;;
71288;SDS011;59068;52.502;9.860;2023-09-12T10:31:12;8.87;;;7.97;;
71288;SDS011;59068;52.502;9.860;2023-09-12T10:34:00;9.03;;;8.23;;
71288;SDS011;59068;52.502;9.860;2023-09-12T10:36:50;9.73;;;8.73;;
71288;SDS011;59068;52.502;9.860;2023-09-12T10:39:38;9.07;;;8.27;;
71288;SDS011;59068;52.502;9.860;2023-09-12T10:42:26;8.73;;;8.03;;
71288;SDS011;59068;52.502;9.860;2023-09-12T10:45:14;9.50;;;8.60;;
71288;SDS011;59068;52.502;9.860;2023-09-12T10:48:01;8.57;;;7.77;;
71288;SDS011;59068;52.502;9.860;2023-09-12T10:50:50;9.43;;;8.17;;
71288;SDS011;59068;52.502;9.860;2023-09-12T10:53:37;8.80;;;8.00;;
71288;SDS011;59068;52.502;9.860;2023-09-12T10:56:24;9.23;;;8.33;;
71288;SDS011;59068;52.502;9.860;2023-09-12T10:59:15;10.40;;;8.70;;
71288;SDS011;59068;52.502;9.860;2023-09-12T11:02:26;10.90;;;9.03;;
71288;SDS011;59068;52.502;9.860;2023-09-12T11:08:22;9.17;;;8.37;;
71288;SDS011;59068;52.502;9.860;2023-09-12T11:11:18;8.93;;;8.13;;
71288;SDS011;59068;52.502;9.860;2023-09-12T11:14:07;9.80;;;8.97;;
71288;SDS011;59068;52.502;9.860;2023-09-12T11:20:03;9.17;;;8.37;;
71288;SDS011;59068;52.502;9.860;2023-09-12T11:22:52;9.43;;;8.57;;
71288;SDS011;59068;52.502;9.860;2023-09-12T11:25:39;9.90;;;8.63;;
71288;SDS011;59068;52.502;9.860;2023-09-12T11:28:31;9.43;;;8.63;;
71288;SDS011;59068;52.502;9.860;2023-09-12T11:31:24;9.10;;;8.33;;
71288;SDS011;59068;52.502;9.860;2023-09-12T11:34:17;9.37;;;8.47;;
71288;SDS011;59068;52.502;9.860;2023-09-12T11:37:07;8.87;;;8.03;;
71288;SDS011;59068;52.502;9.860;2023-09-12T11:39:56;8.90;;;8.10;;
71288;SDS011;59068;52.502;9.860;2023-09-12T11:42:45;9.20;;;8.37;;
71288;SDS011;59068;52.502;9.860;2023-09-12T11:45:32;9.37;;;8.57;;
71288;SDS011;59068;52.502;9.860;2023-09-12T11:48:20;8.97;;;8.20;;
71288;SDS011;59068;52.502;9.860;2023-09-12T11:51:07;9.63;;;8.73;;
71288;SDS011;59068;52.502;9.860;2023-09-12T11:53:55;10.10;;;9.20;;
71288;SDS011;59068;52.502;9.860;2023-09-12T11:56:44;8.97;;;8.17;;
71288;SDS011;59068;52.502;9.860;2023-09-12T11:59:32;9.73;;;8.83;;
71288;SDS011;59068;52.502;9.860;2023-09-12T12:02:20;9.80;;;8.97;;
71288;SDS011;59068;52.502;9.860;2023-09-12T12:05:09;9.07;;;8.17;;
71288;SDS011;59068;52.502;9.860;2023-09-12T12:07:57;8.67;;;7.90;;
71288;SDS011;59068;52.502;9.860;2023-09-12T12:10:49;9.83;;;8.93;;
71288;SDS011;59068;52.502;9.860;2023-09-12T12:13:18;8.67;;;7.97;;
71288;SDS011;59068;52.502;9.860;2023-09-12T12:15:46;8.50;;;7.80;;
71288;SDS011;59068;52.502;9.860;2023-09-12T12:18:13;9.33;;;8.53;;
71288;SDS011;59068;52.502;9.860;2023-09-12T12:21:00;8.83;;;8.00;;
71288;SDS011;59068;52.502;9.860;2023-09-12T12:23:57;8.20;;;7.40;;
71288;SDS011;59068;52.502;9.860;2023-09-12T12:26:25;8.03;;;7.33;;
71288;SDS011;59068;52.502;9.860;2023-09-12T12:28:58;8.13;;;7.43;;
71288;SDS011;59068;52.502;9.860;2023-09-12T12:31:25;9.00;;;8.20;;
71288;SDS011;59068;52.502;9.860;2023-09-12T12:33:52;8.83;;;8.10;;
71288;SDS011;59068;52.502;9.860;2023-09-12T12:36:19;8.70;;;7.90;;
71288;SDS011;59068;52.502;9.860;2023-09-12T12:38:47;8.67;;;7.87;;
71288;SDS011;59068;52.502;9.860;2023-09-12T12:41:14;9.20;;;8.30;;
71288;SDS011;59068;52.502;9.860;2023-09-12T12:43:41;8.83;;;8.13;;
71288;SDS011;59068;52.502;9.860;2023-09-12T12:46:11;9.20;;;8.33;;
71288;SDS011;59068;52.502;9.860;2023-09-12T12:48:38;9.50;;;8.70;;
71288;SDS011;59068;52.502;9.860;2023-09-12T12:51:12;10.00;;;9.10;;
71288;SDS011;59068;52.502;9.860;2023-09-12T12:53:41;9.40;;;8.50;;
71288;SDS011;59068;52.502;9.860;2023-09-12T12:56:09;9.30;;;8.40;;
71288;SDS011;59068;52.502;9.860;2023-09-12T12:58:38;9.63;;;8.73;;
71288;SDS011;59068;52.502;9.860;2023-09-12T13:01:05;8.93;;;8.27;;
71288;SDS011;59068;52.502;9.860;2023-09-12T13:03:33;10.07;;;8.27;;
71288;SDS011;59068;52.502;9.860;2023-09-12T13:06:00;8.87;;;8.07;;
71288;SDS011;59068;52.502;9.860;2023-09-12T13:08:27;8.90;;;8.20;;
71288;SDS011;59068;52.502;9.860;2023-09-12T13:10:53;9.17;;;8.37;;
71288;SDS011;59068;52.502;9.860;2023-09-12T13:13:20;8.97;;;8.17;;
71288;SDS011;59068;52.502;9.860;2023-09-12T13:15:47;10.00;;;9.00;;
71288;SDS011;59068;52.502;9.860;2023-09-12T13:18:13;9.67;;;8.77;;
71288;SDS011;59068;52.502;9.860;2023-09-12T13:20:41;9.33;;;8.47;;
71288;SDS011;59068;52.502;9.860;2023-09-12T13:23:08;9.87;;;9.07;;
71288;SDS011;59068;52.502;9.860;2023-09-12T13:25:35;8.87;;;8.17;;
71288;SDS011;59068;52.502;9.860;2023-09-12T13:28:02;10.17;;;9.07;;
71288;SDS011;59068;52.502;9.860;2023-09-12T13:30:29;9.57;;;8.77;;
71288;SDS011;59068;52.502;9.860;2023-09-12T13:32:55;9.47;;;8.57;;
71288;SDS011;59068;52.502;9.860;2023-09-12T13:35:22;9.00;;;8.27;;
71288;SDS011;59068;52.502;9.860;2023-09-12T13:37:50;8.27;;;7.67;;
71288;SDS011;59068;52.502;9.860;2023-09-12T13:40:17;8.60;;;7.80;;
71288;SDS011;59068;52.502;9.860;2023-09-12T13:42:45;8.90;;;8.10;;
71288;SDS011;59068;52.502;9.860;2023-09-12T13:45:11;7.43;;;6.83;;
71288;SDS011;59068;52.502;9.860;2023-09-12T13:47:38;7.73;;;7.07;;
71288;SDS011;59068;52.502;9.860;2023-09-12T13:50:05;7.17;;;6.57;;
71288;SDS011;59068;52.502;9.860;2023-09-12T13:52:32;8.43;;;7.73;;
71288;SDS011;59068;52.502;9.860;2023-09-12T13:55:00;7.90;;;7.10;;
71288;SDS011;59068;52.502;9.860;2023-09-12T13:57:28;5.87;;;5.37;;
71288;SDS011;59068;52.502;9.860;2023-09-12T13:59:55;5.63;;;5.13;;
71288;SDS011;59068;52.502;9.860;2023-09-12T14:02:21;5.83;;;5.33;;
71288;SDS011;59068;52.502;9.860;2023-09-12T14:04:49;5.73;;;5.33;;
71288;SDS011;59068;52.502;9.860;2023-09-12T14:07:16;5.87;;;5.37;;
71288;SDS011;59068;52.502;9.860;2023-09-12T14:09:42;5.53;;;5.13;;
71288;SDS011;59068;52.502;9.860;2023-09-12T14:12:10;5.27;;;4.40;;
71288;SDS011;59068;52.502;9.860;2023-09-12T14:14:37;5.83;;;5.20;;
71288;SDS011;59068;52.502;9.860;2023-09-12T14:17:03;5.67;;;5.07;;
71288;SDS011;59068;52.502;9.860;2023-09-12T14:19:30;5.57;;;5.07;;
71288;SDS011;59068;52.502;9.860;2023-09-12T14:21:56;5.20;;;4.80;;
71288;SDS011;59068;52.502;9.860;2023-09-12T14:24:23;5.13;;;4.73;;
71288;SDS011;59068;52.502;9.860;2023-09-12T14:26:49;5.40;;;5.00;;
71288;SDS011;59068;52.502;9.860;2023-09-12T14:29:17;5.03;;;4.63;;
71288;SDS011;59068;52.502;9.860;2023-09-12T14:31:44;4.50;;;4.20;;
71288;SDS011;59068;52.502;9.860;2023-09-12T14:34:15;4.27;;;3.90;;
71288;SDS011;59068;52.502;9.860;2023-09-12T14:36:41;4.17;;;3.87;;
71288;SDS011;59068;52.502;9.860;2023-09-12T14:39:11;4.27;;;3.97;;
71288;SDS011;59068;52.502;9.860;2023-09-12T14:41:37;4.43;;;4.03;;
71288;SDS011;59068;52.502;9.860;2023-09-12T14:44:04;4.43;;;4.13;;
71288;SDS011;59068;52.502;9.860;2023-09-12T14:46:32;4.37;;;4.07;;
71288;SDS011;59068;52.502;9.860;2023-09-12T14:48:59;5.07;;;4.67;;
71288;SDS011;59068;52.502;9.860;2023-09-12T14:51:26;4.80;;;4.40;;
71288;SDS011;59068;52.502;9.860;2023-09-12T14:53:52;4.67;;;4.37;;
71288;SDS011;59068;52.502;9.860;2023-09-12T14:56:19;4.77;;;4.47;;
71288;SDS011;59068;52.502;9.860;2023-09-12T14:58:46;5.13;;;4.73;;
71288;SDS011;59068;52.502;9.860;2023-09-12T15:01:12;4.80;;;4.33;;
71288;SDS011;59068;52.502;9.860;2023-09-12T15:03:40;4.83;;;4.43;;
71288;SDS011;59068;52.502;9.860;2023-09-12T15:06:07;4.40;;;4.10;;
71288;SDS011;59068;52.502;9.860;2023-09-12T15:08:33;4.40;;;4.10;;
71288;SDS011;59068;52.502;9.860;2023-09-12T15:11:01;5.33;;;4.77;;
71288;SDS011;59068;52.502;9.860;2023-09-12T15:13:28;6.13;;;5.33;;
71288;SDS011;59068;52.502;9.860;2023-09-12T15:15:54;5.60;;;5.10;;
71288;SDS011;59068;52.502;9.860;2023-09-12T15:18:21;5.37;;;4.90;;
71288;SDS011;59068;52.502;9.860;2023-09-12T15:20:49;5.10;;;4.70;;
71288;SDS011;59068;52.502;9.860;2023-09-12T15:23:18;5.00;;;4.60;;
71288;SDS011;59068;52.502;9.860;2023-09-12T15:25:46;5.10;;;4.60;;
71288;SDS011;59068;52.502;9.860;2023-09-12T15:28:12;4.70;;;4.30;;
71288;SDS011;59068;52.502;9.860;2023-09-12T15:30:39;5.23;;;4.83;;
71288;SDS011;59068;52.502;9.860;2023-09-12T15:33:05;4.50;;;4.20;;
71288;SDS011;59068;52.502;9.860;2023-09-12T15:35:32;5.67;;;5.17;;
71288;SDS011;59068;52.502;9.860;2023-09-12T15:38:00;7.77;;;6.10;;
71288;SDS011;59068;52.502;9.860;2023-09-12T15:40:27;6.10;;;5.60;;
71288;SDS011;59068;52.502;9.860;2023-09-12T15:42:53;6.77;;;6.20;;
71288;SDS011;59068;52.502;9.860;2023-09-12T15:45:21;6.53;;;6.00;;
71288;SDS011;59068;52.502;9.860;2023-09-12T15:47:47;6.13;;;5.67;;
71288;SDS011;59068;52.502;9.860;2023-09-12T15:50:14;6.03;;;5.53;;
71288;SDS011;59068;52.502;9.860;2023-09-12T15:52:41;6.37;;;5.77;;
71288;SDS011;59068;52.502;9.860;2023-09-12T15:55:09;5.90;;;5.40;;
71288;SDS011;59068;52.502;9.860;2023-09-12T15:57:37;6.10;;;5.57;;
71288;SDS011;59068;52.502;9.860;2023-09-12T16:00:05;5.63;;;5.23;;
71288;SDS011;59068;52.502;9.860;2023-09-12T16:02:35;5.77;;;5.37;;
71288;SDS011;59068;52.502;9.860;2023-09-12T16:05:02;6.30;;;5.70;;
71288;SDS011;59068;52.502;9.860;2023-09-12T16:07:29;6.07;;;5.57;;
71288;SDS011;59068;52.502;9.860;2023-09-12T16:09:55;6.50;;;6.00;;